Terminal Aerodrome Forecast
Issued by NWS

Home | Current Version | Previous Version | Text Only | Print | Product List | Glossary On
Versions: 1 2 3 4 5 6 7 8 9 10 11 12
000
FTUS45 KABQ 311100
TAFLVS
TAF
KLVS 311126Z 3112/0112 15005KT P6SM SCT250
     FM311700 19015G25KT P6SM SCT200
     FM010000 19011KT P6SM SCT150
     FM010900 20010KT P6SM SCT040 SCT090=

USA.gov is the U.S. government's official web portal to all federal, state and local government web resources and services.